Time;durP1;ratioP1;P1;durP2;ratioP2;P2;SDS_P1;SDS_P2;PMS_P1;PMS_P2;Temp;Humidity;BMP_temperature;BMP_pressure;BME280_temperature;BME280_humidity;BME280_pressure;Samples;Min_cycle;Max_cycle;Signal;HPM_P1;HPM_P2
2022/04/09 00:01:34;;;;;;;15.27;3.97;;;12.70;99.90;;;;;;4988217;28;20225;-67
2022/04/09 00:04:00;;;;;;;17.97;4.43;;;12.70;99.90;;;;;;4985130;28;20774;-67
2022/04/09 00:06:26;;;;;;;16.70;4.10;;;12.70;99.90;;;;;;4985133;28;20256;-68
2022/04/09 00:08:53;;;;;;;18.10;4.57;;;12.60;99.90;;;;;;4974256;28;20201;-67
2022/04/09 00:11:20;;;;;;;17.40;3.87;;;12.50;99.90;;;;;;4985140;28;20531;-67
2022/04/09 00:13:46;;;;;;;11.10;3.57;;;12.50;99.90;;;;;;4984292;28;20231;-67
2022/04/09 00:16:14;;;;;;;16.20;4.47;;;12.50;99.90;;;;;;4990348;28;20208;-67
2022/04/09 00:18:43;;;;;;;12.87;4.23;;;12.50;99.90;;;;;;4989723;28;20686;-67
2022/04/09 00:21:10;;;;;;;18.70;4.10;;;12.50;99.90;;;;;;4989173;28;20189;-67
2022/04/09 00:23:36;;;;;;;18.43;4.43;;;12.60;99.90;;;;;;4988722;28;20216;-67
2022/04/09 00:26:03;;;;;;;11.80;3.70;;;12.50;99.90;;;;;;4989056;28;20209;-67
2022/04/09 00:28:29;;;;;;;15.90;4.20;;;12.60;99.90;;;;;;4983616;28;20223;-67
2022/04/09 00:30:55;;;;;;;21.80;3.90;;;12.60;99.90;;;;;;4989677;28;20351;-67
2022/04/09 00:33:21;;;;;;;18.00;3.63;;;12.50;99.90;;;;;;4980264;28;20194;-67
2022/04/09 00:35:48;;;;;;;15.67;3.60;;;12.50;99.90;;;;;;4984367;28;20515;-67
2022/04/09 00:38:14;;;;;;;18.80;4.10;;;12.50;99.90;;;;;;4988888;28;20321;-67
2022/04/09 00:40:40;;;;;;;14.20;3.70;;;12.50;99.90;;;;;;4988433;28;20189;-67
2022/04/09 00:43:07;;;;;;;23.23;3.40;;;12.50;99.90;;;;;;4984085;28;20196;-67
2022/04/09 00:45:33;;;;;;;12.27;3.93;;;12.50;99.90;;;;;;4987007;28;20201;-67
2022/04/09 00:48:00;;;;;;;12.90;3.10;;;12.50;99.90;;;;;;4989460;28;20761;-67
2022/04/09 00:50:26;;;;;;;12.43;3.40;;;12.60;99.90;;;;;;4987943;28;20268;-67
2022/04/09 00:52:58;;;;;;;14.17;3.70;;;12.50;99.90;;;;;;4974075;28;20939;-67
2022/04/09 00:58:17;;;;;;;17.53;5.07;;;12.60;99.90;;;;;;4987348;28;20197;-67
2022/04/09 01:00:44;;;;;;;20.57;5.63;;;12.60;99.90;;;;;;4989413;28;20601;-67
2022/04/09 01:03:12;;;;;;;17.70;4.27;;;12.70;99.90;;;;;;4970899;28;20213;-67
2022/04/09 01:05:41;;;;;;;18.33;4.17;;;12.70;99.90;;;;;;4973143;28;20201;-67
2022/04/09 01:08:08;;;;;;;15.40;4.87;;;12.80;99.90;;;;;;4988259;28;20185;-67
2022/04/09 01:10:35;;;;;;;14.13;4.83;;;12.80;99.90;;;;;;4987888;28;20204;-67
2022/04/09 01:13:02;;;;;;;12.33;4.27;;;12.90;99.90;;;;;;4965893;28;20190;-67
2022/04/09 01:15:29;;;;;;;16.07;4.33;;;12.90;99.90;;;;;;4988166;28;20613;-67
2022/04/09 01:17:55;;;;;;;16.60;3.90;;;13.00;99.90;;;;;;4988091;28;20714;-67
2022/04/09 01:20:26;;;;;;;10.47;3.90;;;13.00;99.90;;;;;;4992392;28;20825;-67
2022/04/09 01:22:53;;;;;;;15.03;3.90;;;13.00;99.90;;;;;;4969761;28;20243;-67
2022/04/09 01:25:20;;;;;;;13.63;4.50;;;13.00;99.90;;;;;;4986450;28;20638;-67
2022/04/09 01:27:47;;;;;;;10.70;3.67;;;12.90;99.90;;;;;;4988880;28;20189;-67
2022/04/09 01:30:14;;;;;;;15.60;4.20;;;12.80;99.90;;;;;;4989367;28;20534;-67
2022/04/09 01:32:41;;;;;;;13.30;4.40;;;12.80;99.90;;;;;;4971924;28;20416;-67
2022/04/09 01:35:08;;;;;;;11.93;3.50;;;12.80;99.90;;;;;;4976526;28;20284;-67
2022/04/09 01:37:34;;;;;;;16.27;4.23;;;12.80;99.90;;;;;;4981004;28;20201;-67
2022/04/09 01:40:00;;;;;;;14.33;4.03;;;12.80;99.90;;;;;;4973881;28;20194;-67
2022/04/09 01:42:27;;;;;;;18.40;3.93;;;12.80;99.90;;;;;;4952477;28;20201;-67
2022/04/09 01:44:54;;;;;;;13.37;4.10;;;12.80;99.90;;;;;;4984232;28;20217;-67
2022/04/09 01:47:21;;;;;;;11.97;3.93;;;12.90;99.90;;;;;;4969245;28;20562;-67
2022/04/09 01:49:47;;;;;;;12.57;3.97;;;12.90;99.90;;;;;;4984935;28;20206;-67
2022/04/09 01:52:14;;;;;;;18.17;5.07;;;12.90;99.90;;;;;;4988068;28;20623;-67
2022/04/09 01:54:40;;;;;;;14.97;4.30;;;12.90;99.90;;;;;;4983566;28;20204;-67
2022/04/09 01:57:07;;;;;;;13.73;4.20;;;12.80;99.90;;;;;;4975791;28;20198;-67
2022/04/09 01:59:33;;;;;;;9.83;3.57;;;12.80;99.90;;;;;;4985096;28;20578;-67
2022/04/09 02:01:59;;;;;;;18.53;3.60;;;12.90;99.90;;;;;;4985530;28;20532;-67
2022/04/09 02:04:26;;;;;;;16.43;4.07;;;12.80;99.90;;;;;;4983673;28;21042;-67
2022/04/09 02:06:52;;;;;;;15.70;4.10;;;12.80;99.90;;;;;;4980449;28;20232;-67
2022/04/09 02:09:18;;;;;;;14.33;3.77;;;12.90;99.90;;;;;;4988243;28;20197;-67
2022/04/09 02:11:44;;;;;;;15.97;3.80;;;12.80;99.90;;;;;;4963937;28;20178;-67
2022/04/09 02:14:12;;;;;;;16.47;4.10;;;12.80;99.90;;;;;;4990504;28;20697;-67
2022/04/09 02:16:39;;;;;;;12.27;3.87;;;12.80;99.90;;;;;;4978314;28;20272;-67
2022/04/09 02:19:06;;;;;;;11.03;3.80;;;12.80;99.90;;;;;;4989585;28;20277;-67
2022/04/09 02:21:32;;;;;;;13.80;3.50;;;12.80;99.90;;;;;;4993155;28;20185;-67
2022/04/09 02:23:58;;;;;;;12.73;3.97;;;12.80;99.90;;;;;;4992478;28;21042;-67
2022/04/09 02:26:24;;;;;;;11.83;3.93;;;12.80;99.90;;;;;;4990071;28;20217;-67
2022/04/09 02:28:52;;;;;;;10.93;3.20;;;12.80;99.90;;;;;;4991829;28;20597;-67
2022/04/09 02:31:18;;;;;;;10.83;3.20;;;12.70;99.90;;;;;;4992525;28;20198;-67
2022/04/09 02:33:45;;;;;;;15.47;3.43;;;12.70;99.90;;;;;;4991078;28;20193;-67
2022/04/09 02:36:12;;;;;;;13.97;3.00;;;12.70;99.90;;;;;;4970493;28;20922;-67
2022/04/09 02:38:43;;;;;;;8.70;2.83;;;12.70;99.90;;;;;;4989391;28;20197;-67
2022/04/09 02:41:09;;;;;;;12.63;3.23;;;12.70;99.90;;;;;;4990113;28;20666;-67
2022/04/09 02:43:37;;;;;;;11.33;3.30;;;12.70;99.90;;;;;;4979611;28;20373;-67
2022/04/09 02:46:06;;;;;;;11.30;3.43;;;12.60;99.90;;;;;;4989790;28;20221;-67
2022/04/09 02:48:32;;;;;;;8.17;2.90;;;12.60;99.90;;;;;;4991044;28;20714;-67
2022/04/09 02:50:59;;;;;;;11.00;3.00;;;12.70;99.90;;;;;;5007348;28;20188;-66
2022/04/09 02:53:25;;;;;;;11.07;3.80;;;12.60;99.90;;;;;;4992003;28;20252;-67
2022/04/09 02:55:51;;;;;;;10.80;2.90;;;12.60;99.90;;;;;;4992165;28;20633;-67
2022/04/09 02:58:18;;;;;;;10.53;3.37;;;12.60;99.90;;;;;;4977816;28;20208;-67
2022/04/09 03:00:44;;;;;;;11.03;3.17;;;12.60;99.90;;;;;;4986054;28;20209;-67
2022/04/09 03:03:10;;;;;;;11.97;3.20;;;12.50;99.90;;;;;;4972230;28;20257;-67
2022/04/09 03:05:37;;;;;;;12.33;2.90;;;12.50;99.90;;;;;;4974381;28;20190;-67
2022/04/09 03:08:04;;;;;;;12.70;3.47;;;12.60;99.90;;;;;;4989511;28;20240;-67
2022/04/09 03:10:30;;;;;;;10.77;3.30;;;12.60;99.90;;;;;;4983905;28;20317;-67
2022/04/09 03:12:58;;;;;;;19.70;4.07;;;12.60;99.90;;;;;;4974985;28;20267;-67
2022/04/09 03:15:26;;;;;;;11.63;2.93;;;12.60;99.90;;;;;;4985298;28;20245;-67
2022/04/09 03:17:52;;;;;;;10.77;3.40;;;12.60;99.90;;;;;;4988954;28;20201;-67
2022/04/09 03:20:18;;;;;;;12.13;3.17;;;12.60;99.90;;;;;;4989225;28;20288;-67
2022/04/09 03:22:46;;;;;;;12.77;3.63;;;12.60;99.90;;;;;;4990148;28;20240;-67
2022/04/09 03:25:13;;;;;;;13.53;3.70;;;12.50;99.90;;;;;;4981712;28;20512;-67
2022/04/09 03:27:39;;;;;;;9.90;3.23;;;12.40;99.90;;;;;;4985287;28;20233;-67
2022/04/09 03:30:08;;;;;;;10.57;2.97;;;12.40;99.90;;;;;;4986306;28;20185;-67
2022/04/09 03:32:39;;;;;;;9.70;3.03;;;12.40;99.90;;;;;;4985063;28;20182;-67
2022/04/09 03:35:07;;;;;;;11.20;3.23;;;12.40;99.90;;;;;;4976082;28;20189;-67
2022/04/09 03:37:37;;;;;;;10.73;3.00;;;12.40;99.90;;;;;;4977572;28;20694;-67
2022/04/09 03:40:07;;;;;;;16.47;3.07;;;12.40;99.90;;;;;;4989549;28;20197;-67
2022/04/09 03:42:34;;;;;;;10.97;3.27;;;12.40;99.90;;;;;;4987951;28;20206;-67
2022/04/09 03:45:01;;;;;;;11.07;3.37;;;12.40;99.90;;;;;;4990333;28;20197;-67
2022/04/09 03:47:27;;;;;;;18.53;3.37;;;12.40;99.90;;;;;;4990263;28;20240;-67
2022/04/09 03:49:53;;;;;;;14.33;3.70;;;12.40;99.90;;;;;;4989034;28;20256;-67
2022/04/09 03:52:20;;;;;;;10.70;3.30;;;12.40;99.90;;;;;;4988086;28;20190;-67
2022/04/09 03:54:46;;;;;;;14.20;3.30;;;12.40;99.90;;;;;;4988765;28;20197;-67
2022/04/09 03:57:12;;;;;;;12.43;3.53;;;12.40;99.90;;;;;;4990460;28;20275;-67
2022/04/09 03:59:38;;;;;;;11.03;3.03;;;12.40;99.90;;;;;;4987757;28;20220;-67
2022/04/09 04:02:05;;;;;;;8.97;3.00;;;12.40;99.90;;;;;;5001359;28;20204;-67
2022/04/09 04:04:32;;;;;;;13.00;3.13;;;12.40;99.90;;;;;;4986506;28;20206;-67
2022/04/09 04:06:58;;;;;;;14.37;3.67;;;12.40;99.90;;;;;;4986692;28;20296;-67
2022/04/09 04:09:24;;;;;;;10.83;2.93;;;12.40;99.90;;;;;;4989897;28;20209;-67
2022/04/09 04:11:51;;;;;;;17.33;3.43;;;12.50;99.90;;;;;;4987869;28;20196;-67
2022/04/09 04:14:17;;;;;;;11.13;2.80;;;12.50;99.90;;;;;;4989657;28;20208;-67
2022/04/09 04:16:43;;;;;;;9.77;2.80;;;12.50;99.90;;;;;;4989064;28;20565;-67
2022/04/09 04:19:09;;;;;;;11.50;3.10;;;12.50;99.90;;;;;;4988482;28;20951;-66
2022/04/09 04:21:38;;;;;;;9.03;2.80;;;12.50;99.90;;;;;;4986642;28;20642;-67
2022/04/09 04:24:05;;;;;;;14.53;3.37;;;12.60;99.90;;;;;;4988018;28;20189;-67
2022/04/09 04:26:31;;;;;;;7.63;2.50;;;12.60;99.90;;;;;;4987846;28;20225;-67
2022/04/09 04:28:57;;;;;;;11.93;3.00;;;12.60;99.90;;;;;;4988871;28;20757;-67
2022/04/09 04:31:23;;;;;;;9.23;2.67;;;12.70;99.90;;;;;;4977958;28;20273;-67
2022/04/09 04:33:50;;;;;;;10.50;2.90;;;12.70;99.90;;;;;;4983785;28;20598;-67
2022/04/09 04:36:16;;;;;;;9.17;2.43;;;12.80;99.90;;;;;;4989281;28;20311;-67
2022/04/09 04:38:43;;;;;;;10.27;2.53;;;12.80;99.90;;;;;;4987880;28;20202;-67
2022/04/09 04:41:09;;;;;;;12.10;2.70;;;12.80;99.90;;;;;;4989042;28;20642;-67
2022/04/09 04:43:35;;;;;;;8.53;2.80;;;12.80;99.90;;;;;;4982662;28;20186;-67
2022/04/09 04:46:02;;;;;;;13.27;3.20;;;12.80;99.90;;;;;;4969377;28;20530;-67
2022/04/09 04:48:28;;;;;;;8.73;2.60;;;12.90;99.90;;;;;;4988846;28;20201;-67
2022/04/09 04:50:56;;;;;;;10.70;3.50;;;12.90;99.90;;;;;;4982056;28;20186;-67
2022/04/09 04:53:22;;;;;;;13.60;3.03;;;13.00;99.90;;;;;;4985674;28;20190;-67
2022/04/09 04:55:51;;;;;;;9.17;2.70;;;13.10;99.90;;;;;;4991632;28;20189;-67
2022/04/09 04:58:20;;;;;;;7.83;3.00;;;13.10;99.90;;;;;;4986179;28;20251;-67
2022/04/09 05:00:47;;;;;;;8.87;2.60;;;13.20;99.90;;;;;;4988239;28;20193;-67
2022/04/09 05:03:13;;;;;;;11.50;3.33;;;13.30;99.90;;;;;;4988842;28;20189;-67
2022/04/09 05:05:41;;;;;;;9.00;3.93;;;13.30;99.90;;;;;;4974097;28;20192;-67
2022/04/09 05:08:09;;;;;;;7.57;3.53;;;13.40;99.90;;;;;;4981649;28;20551;-67
2022/04/09 05:10:35;;;;;;;12.00;3.27;;;13.50;99.90;;;;;;4975946;28;20277;-67
2022/04/09 05:13:01;;;;;;;10.43;3.00;;;13.50;99.90;;;;;;4980275;28;20295;-67
2022/04/09 05:15:28;;;;;;;27.00;14.63;;;13.60;99.90;;;;;;4973925;28;20209;-67
2022/04/09 05:17:54;;;;;;;16.00;9.80;;;13.70;99.90;;;;;;4982955;28;20547;-67
2022/04/09 05:20:21;;;;;;;17.90;7.90;;;13.80;99.90;;;;;;4970339;28;20193;-67
2022/04/09 05:22:47;;;;;;;20.47;5.33;;;13.80;99.90;;;;;;4969411;28;20208;-67
2022/04/09 05:25:19;;;;;;;150.50;17.10;;;13.90;99.90;;;;;;4995857;28;20280;-67
2022/04/09 05:27:48;;;;;;;103.10;16.13;;;14.00;99.90;;;;;;4975898;28;20214;-67
2022/04/09 05:30:15;;;;;;;111.20;16.00;;;14.00;99.90;;;;;;4986416;28;20686;-67
2022/04/09 05:32:43;;;;;;;29.30;6.43;;;14.10;99.90;;;;;;4999765;28;20216;-67
2022/04/09 05:35:10;;;;;;;36.90;6.53;;;14.20;99.90;;;;;;4982630;28;20536;-67
2022/04/09 05:37:36;;;;;;;16.33;3.93;;;14.30;99.90;;;;;;4987260;28;20221;-67
2022/04/09 05:40:06;;;;;;;8.67;3.13;;;14.30;99.90;;;;;;4989567;28;20709;-67
2022/04/09 05:42:33;;;;;;;13.37;3.20;;;14.30;99.90;;;;;;4986357;28;20201;-67
2022/04/09 05:44:59;;;;;;;10.17;3.07;;;14.40;99.90;;;;;;4991737;28;20364;-67
2022/04/09 05:47:26;;;;;;;11.40;3.50;;;14.50;99.90;;;;;;4988289;28;20229;-67
2022/04/09 05:49:52;;;;;;;19.57;4.03;;;14.60;99.90;;;;;;4990563;28;20198;-67
2022/04/09 05:52:19;;;;;;;14.20;3.20;;;14.70;99.90;;;;;;4991634;28;20238;-67
2022/04/09 05:54:45;;;;;;;10.83;3.00;;;14.90;99.90;;;;;;4991506;28;20546;-67
2022/04/09 05:57:11;;;;;;;11.47;2.87;;;14.90;99.90;;;;;;4990762;28;20204;-67
2022/04/09 05:59:38;;;;;;;7.37;2.63;;;15.00;99.90;;;;;;4990160;28;20193;-67
2022/04/09 06:02:04;;;;;;;12.43;6.57;;;15.10;99.90;;;;;;4992320;28;20686;-67
2022/04/09 06:04:30;;;;;;;19.10;7.30;;;15.20;99.90;;;;;;4988932;28;20256;-67
2022/04/09 06:06:56;;;;;;;14.63;3.80;;;15.40;99.90;;;;;;4983091;28;20225;-67
2022/04/09 06:09:23;;;;;;;12.20;2.33;;;15.50;99.90;;;;;;4986774;28;20194;-67
2022/04/09 06:11:49;;;;;;;8.07;2.67;;;15.80;99.90;;;;;;4981792;28;20193;-67
2022/04/09 06:14:15;;;;;;;10.20;2.20;;;15.90;99.90;;;;;;4991452;28;20638;-67
2022/04/09 06:16:43;;;;;;;6.93;2.40;;;15.90;99.90;;;;;;4989849;28;21015;-67
2022/04/09 06:19:10;;;;;;;10.30;2.57;;;15.90;99.90;;;;;;4987090;28;20197;-67
2022/04/09 06:21:36;;;;;;;8.43;2.30;;;16.10;99.90;;;;;;4973985;28;20546;-67
2022/04/09 06:24:03;;;;;;;8.80;2.73;;;16.20;99.90;;;;;;4989139;28;20685;-66
2022/04/09 06:26:30;;;;;;;8.93;3.00;;;16.30;99.90;;;;;;4981513;28;20222;-67
2022/04/09 06:28:56;;;;;;;9.40;2.57;;;16.30;99.90;;;;;;4983340;28;20202;-67
2022/04/09 06:31:23;;;;;;;15.67;3.13;;;16.50;99.90;;;;;;4978396;28;20919;-67
2022/04/09 06:33:49;;;;;;;7.27;2.50;;;16.60;99.90;;;;;;4990727;28;20220;-67
2022/04/09 06:36:16;;;;;;;7.10;2.33;;;16.70;99.90;;;;;;4989180;28;20339;-67
2022/04/09 06:38:42;;;;;;;9.53;2.33;;;16.80;99.90;;;;;;4987683;28;20198;-66
2022/04/09 06:41:09;;;;;;;11.13;2.30;;;16.90;99.90;;;;;;4990772;28;20205;-67
2022/04/09 06:43:35;;;;;;;9.33;2.23;;;17.10;99.90;;;;;;4985983;28;20903;-67
2022/04/09 06:46:02;;;;;;;8.80;2.30;;;17.20;99.90;;;;;;4988955;28;20222;-67
2022/04/09 06:48:29;;;;;;;8.33;2.07;;;17.30;99.90;;;;;;4990315;28;20272;-67
2022/04/09 06:50:55;;;;;;;10.80;2.57;;;17.30;99.90;;;;;;4986331;28;20204;-67
2022/04/09 06:53:21;;;;;;;7.03;2.33;;;17.40;99.90;;;;;;4966776;28;20213;-67
2022/04/09 06:55:48;;;;;;;7.43;1.80;;;17.50;99.90;;;;;;4989208;28;20204;-68
2022/04/09 06:58:14;;;;;;;15.00;2.10;;;17.60;99.90;;;;;;4989230;28;20696;-67
2022/04/09 07:00:40;;;;;;;7.27;2.03;;;17.70;99.90;;;;;;4984654;28;20738;-67
2022/04/09 07:03:07;;;;;;;12.93;2.90;;;17.80;99.90;;;;;;4986356;28;20224;-68
2022/04/09 07:05:33;;;;;;;10.83;2.53;;;17.80;99.90;;;;;;4987822;28;20189;-67
2022/04/09 07:08:01;;;;;;;11.10;3.20;;;18.00;99.90;;;;;;4988180;28;21132;-68
2022/04/09 07:10:28;;;;;;;9.07;2.83;;;18.10;99.90;;;;;;4978960;28;20206;-68
2022/04/09 07:12:54;;;;;;;13.03;3.53;;;18.10;99.90;;;;;;4983711;28;20197;-67
2022/04/09 07:15:21;;;;;;;11.33;4.03;;;18.20;99.90;;;;;;4984591;28;20237;-68
2022/04/09 07:17:47;;;;;;;12.83;4.20;;;18.20;99.90;;;;;;4927890;28;1725624;-68
2022/04/09 07:20:13;;;;;;;14.43;4.17;;;18.20;99.90;;;;;;4986615;28;20210;-67
2022/04/09 07:22:40;;;;;;;9.80;3.27;;;18.30;99.90;;;;;;4988269;28;20197;-67
2022/04/09 07:25:07;;;;;;;12.57;3.30;;;18.30;99.90;;;;;;4977995;28;20209;-67
2022/04/09 07:27:46;;;;;;;18.07;4.00;;;18.40;99.90;;;;;;4981186;28;20626;-68
2022/04/09 07:30:18;;;;;;;17.30;3.77;;;18.40;99.90;;;;;;4976568;28;20194;-67
2022/04/09 07:32:47;;;;;;;18.13;3.80;;;18.50;99.90;;;;;;4988181;28;20255;-68
2022/04/09 07:35:14;;;;;;;15.90;3.87;;;18.60;99.90;;;;;;4989782;28;20208;-67
2022/04/09 07:37:55;;;;;;;11.90;3.20;;;18.70;99.90;;;;;;4989044;28;20542;-68
2022/04/09 07:40:24;;;;;;;9.57;3.47;;;18.70;99.90;;;;;;4980330;28;20290;-68
2022/04/09 07:42:56;;;;;;;14.87;3.43;;;18.70;99.90;;;;;;4972875;28;20806;-67
2022/04/09 07:45:24;;;;;;;10.67;3.53;;;18.80;99.90;;;;;;4990973;28;20196;-68
2022/04/09 07:48:00;;;;;;;9.43;3.40;;;18.90;99.90;;;;;;4989045;28;20233;-67
2022/04/09 07:50:27;;;;;;;14.93;3.53;;;18.90;99.90;;;;;;5005092;28;20383;-67
2022/04/09 07:52:55;;;;;;;15.30;4.07;;;19.00;99.90;;;;;;4986882;28;20199;-67
2022/04/09 07:55:22;;;;;;;17.93;4.10;;;19.00;99.90;;;;;;4982233;28;20197;-68
2022/04/09 07:57:50;;;;;;;13.17;3.40;;;19.10;99.90;;;;;;4996074;28;20193;-67
2022/04/09 08:00:20;;;;;;;14.97;3.67;;;19.10;99.90;;;;;;4983315;28;20198;-67
2022/04/09 08:02:46;;;;;;;16.73;3.50;;;19.10;99.90;;;;;;4989015;28;20186;-67
2022/04/09 08:05:13;;;;;;;13.23;3.53;;;19.20;99.90;;;;;;4990413;28;20196;-67
2022/04/09 08:07:41;;;;;;;14.13;3.43;;;19.20;99.90;;;;;;4984490;28;21087;-67
2022/04/09 08:10:09;;;;;;;12.23;3.33;;;19.30;99.90;;;;;;4988523;28;20213;-67
2022/04/09 08:12:35;;;;;;;13.50;3.43;;;19.40;99.90;;;;;;4971033;28;20235;-67
2022/04/09 08:15:02;;;;;;;14.20;3.70;;;19.40;99.90;;;;;;4983434;28;20186;-68
2022/04/09 08:17:28;;;;;;;15.20;3.87;;;19.50;99.90;;;;;;4988858;28;20201;-67
2022/04/09 08:19:55;;;;;;;16.90;3.70;;;19.50;99.90;;;;;;4980515;28;20217;-67
2022/04/09 08:22:22;;;;;;;15.43;3.87;;;19.60;99.90;;;;;;4984027;28;20205;-67
2022/04/09 08:24:49;;;;;;;15.97;3.73;;;19.70;99.90;;;;;;4990478;28;20220;-67
2022/04/09 08:27:15;;;;;;;24.90;4.93;;;19.70;99.90;;;;;;4989679;28;20500;-67
2022/04/09 08:29:42;;;;;;;18.13;4.60;;;19.80;99.90;;;;;;4987161;28;20240;-67
2022/04/09 08:32:08;;;;;;;20.00;4.13;;;19.80;99.90;;;;;;4984776;28;20252;-67
2022/04/09 08:34:35;;;;;;;20.53;4.40;;;19.80;99.90;;;;;;4982713;28;20194;-68
2022/04/09 08:37:03;;;;;;;18.37;4.50;;;19.90;99.90;;;;;;4971863;28;20197;-67
2022/04/09 08:39:30;;;;;;;16.47;3.93;;;20.00;99.90;;;;;;4987944;28;20264;-67
2022/04/09 08:41:58;;;;;;;21.50;4.20;;;20.00;99.90;;;;;;4986696;28;20193;-67
2022/04/09 08:44:25;;;;;;;22.60;5.27;;;20.10;99.90;;;;;;4986680;28;20288;-67
2022/04/09 08:46:54;;;;;;;21.37;4.67;;;20.20;99.90;;;;;;4977779;28;20225;-68
2022/04/09 08:49:24;;;;;;;19.97;4.93;;;20.30;99.90;;;;;;4989364;28;20193;-68
2022/04/09 08:51:52;;;;;;;27.57;5.83;;;20.30;99.90;;;;;;4987497;28;20189;-67
2022/04/09 08:54:18;;;;;;;19.13;4.80;;;20.30;99.90;;;;;;4988456;28;20200;-68
2022/04/09 08:56:47;;;;;;;29.10;5.33;;;20.40;99.90;;;;;;4985911;28;20201;-68
2022/04/09 08:59:13;;;;;;;21.13;4.93;;;20.50;99.90;;;;;;4988190;28;20198;-68
2022/04/09 09:01:40;;;;;;;26.90;5.93;;;20.50;99.90;;;;;;4983601;28;20729;-67
2022/04/09 09:04:06;;;;;;;14.67;4.43;;;20.50;99.90;;;;;;4987643;28;20273;-68
2022/04/09 09:06:44;;;;;;;25.73;5.20;;;20.50;99.90;;;;;;4994836;28;20220;-68
2022/04/09 09:09:32;;;;;;;17.60;4.43;;;20.60;99.90;;;;;;4988986;28;20275;-68
2022/04/09 09:12:06;;;;;;;25.57;4.93;;;20.80;99.90;;;;;;4984738;28;20646;-68
2022/04/09 09:14:36;;;;;;;28.43;4.90;;;20.80;99.90;;;;;;5002001;28;20207;-68
2022/04/09 09:17:04;;;;;;;25.37;4.60;;;20.90;99.90;;;;;;4988208;28;20217;-67
2022/04/09 09:19:48;;;;;;;21.20;4.90;;;21.00;99.90;;;;;;4986170;28;20208;-67
2022/04/09 09:22:18;;;;;;;16.07;3.80;;;21.00;99.90;;;;;;4986768;28;20700;-68
2022/04/09 09:25:04;;;;;;;21.00;4.13;;;21.10;99.90;;;;;;4988216;28;20205;-67
2022/04/09 09:27:31;;;;;;;17.23;4.03;;;21.20;99.90;;;;;;4976986;28;20245;-67
2022/04/09 09:29:57;;;;;;;23.10;3.93;;;21.30;99.90;;;;;;4962831;28;20194;-67
2022/04/09 09:32:29;;;;;;;18.90;4.20;;;21.50;99.90;;;;;;4986750;28;20199;-68
2022/04/09 09:34:57;;;;;;;20.23;4.23;;;21.70;99.90;;;;;;4978489;28;20197;-67
2022/04/09 09:37:25;;;;;;;17.03;4.13;;;21.80;99.90;;;;;;4978530;28;20189;-68
2022/04/09 09:39:52;;;;;;;22.90;5.07;;;21.90;99.90;;;;;;4969085;28;20216;-67
2022/04/09 09:42:24;;;;;;;20.77;4.83;;;22.10;99.90;;;;;;4986238;28;20213;-68
2022/04/09 09:44:50;;;;;;;23.40;5.00;;;22.10;99.90;;;;;;4987353;28;20190;-68
2022/04/09 09:47:17;;;;;;;12.13;3.77;;;22.30;99.90;;;;;;4987863;28;20327;-68
2022/04/09 09:49:53;;;;;;;19.37;4.10;;;22.40;99.90;;;;;;4988471;28;20304;-68
2022/04/09 09:52:40;;;;;;;22.63;4.77;;;22.50;99.90;;;;;;4988662;28;20219;-68
2022/04/09 09:55:13;;;;;;;18.50;4.97;;;22.60;99.90;;;;;;4988779;28;20515;-68
2022/04/09 09:57:41;;;;;;;18.60;5.33;;;22.80;99.90;;;;;;4985995;28;20669;-68
2022/04/09 10:00:11;;;;;;;19.23;4.73;;;22.90;99.90;;;;;;4968581;28;20201;-68
2022/04/09 10:02:39;;;;;;;21.63;5.00;;;22.90;99.90;;;;;;4988467;28;20737;-68
2022/04/09 10:05:07;;;;;;;20.65;4.40;;;23.00;99.90;;;;;;4989460;28;20190;-68
2022/04/09 10:07:37;;;;;;;20.37;4.27;;;23.10;99.90;;;;;;4988583;28;20622;-68
2022/04/09 10:10:06;;;;;;;17.03;4.63;;;23.30;99.90;;;;;;4977841;28;20199;-68
2022/04/09 10:12:39;;;;;;;20.07;4.67;;;23.70;99.90;;;;;;4985370;28;20193;-68
2022/04/09 10:15:07;;;;;;;20.70;4.40;;;25.90;99.90;;;;;;4978103;28;20244;-68
2022/04/09 10:17:34;;;;;;;28.70;4.73;;;28.40;99.90;;;;;;4986029;28;20233;-68
2022/04/09 10:20:03;;;;;;;14.15;4.00;;;29.60;99.90;;;;;;4986957;28;20259;-68
2022/04/09 10:22:52;;;;;;;19.90;5.22;;;27.40;99.90;;;;;;4971351;28;20198;-68
2022/04/09 10:25:20;;;;;;;20.27;4.72;;;25.60;99.90;;;;;;4987878;28;20197;-68
2022/04/09 10:27:54;;;;;;;20.60;3.95;;;24.60;99.90;;;;;;4987325;28;20214;-68
2022/04/09 10:30:24;;;;;;;22.80;4.93;;;24.10;99.90;;;;;;4987855;28;20198;-67
2022/04/09 10:32:57;;;;;;;25.20;5.57;;;23.70;99.90;;;;;;4968721;28;20289;-69
2022/04/09 10:35:39;;;;;;;19.80;4.33;;;23.50;99.90;;;;;;4970872;28;20698;-68
2022/04/09 10:40:37;;;;;;;20.87;4.53;;;23.50;99.90;;;;;;4990420;28;20283;-68
2022/04/09 10:43:05;;;;;;;18.25;4.07;;;23.50;99.90;;;;;;4990499;28;20194;-67
2022/04/09 10:46:06;;;;;;;14.50;4.17;;;23.40;99.90;;;;;;4989704;28;20194;-67
2022/04/09 10:48:44;;;;;;;24.77;5.15;;;23.40;99.90;;;;;;5006947;28;20219;-68
2022/04/09 10:51:12;;;;;;;16.97;4.67;;;23.30;99.90;;;;;;4994893;28;20195;-68
2022/04/09 10:53:45;;;;;;;18.23;4.13;;;23.20;99.90;;;;;;4994869;28;20197;-68
2022/04/09 10:56:27;;;;;;;17.93;4.37;;;23.20;99.90;;;;;;4998975;28;20593;-68
2022/04/09 10:59:15;;;;;;;21.67;4.70;;;23.10;99.90;;;;;;4987691;28;20189;-68
2022/04/09 11:01:48;;;;;;;22.17;4.60;;;23.00;99.90;;;;;;4987625;28;20190;-67
2022/04/09 11:07:19;;;;;;;17.10;4.43;;;22.90;99.90;;;;;;4985153;28;20295;-68
2022/04/09 11:10:01;;;;;;;19.97;4.77;;;22.80;99.90;;;;;;4993555;28;20186;-68
2022/04/09 11:12:41;;;;;;;15.87;4.57;;;22.90;99.90;;;;;;5010141;28;20189;-68
2022/04/09 11:15:11;;;;;;;24.40;5.10;;;22.90;99.90;;;;;;5001632;28;20571;-68
2022/04/09 11:17:43;;;;;;;23.63;4.97;;;22.80;99.90;;;;;;4990400;28;20197;-68
2022/04/09 11:20:26;;;;;;;23.00;5.20;;;22.70;99.90;;;;;;4990404;28;20231;-68
2022/04/09 11:22:56;;;;;;;20.80;4.97;;;22.70;99.90;;;;;;4991142;28;20193;-68
2022/04/09 11:25:28;;;;;;;28.97;5.53;;;22.70;99.90;;;;;;4988513;28;20201;-68
2022/04/09 11:28:38;;;;;;;18.87;4.10;;;22.70;99.90;;;;;;4989222;28;20670;-68
2022/04/09 11:31:06;;;;;;;13.40;3.97;;;22.70;99.90;;;;;;4953390;28;20189;-68
2022/04/09 11:33:32;;;;;;;12.73;4.00;;;22.60;99.90;;;;;;4993141;28;20622;-68
2022/04/09 11:36:02;;;;;;;26.47;4.67;;;22.60;99.90;;;;;;4995795;28;20256;-68
2022/04/09 11:38:30;;;;;;;14.63;3.83;;;22.60;99.90;;;;;;4990720;28;20651;-68
2022/04/09 11:40:57;;;;;;;15.83;4.30;;;22.60;99.90;;;;;;4988917;28;20177;-68
2022/04/09 11:43:27;;;;;;;18.37;4.30;;;22.60;99.90;;;;;;4987888;28;20204;-68
2022/04/09 11:46:04;;;;;;;22.43;4.73;;;22.60;99.90;;;;;;4984360;28;20213;-67
2022/04/09 11:48:30;;;;;;;15.63;4.20;;;22.50;99.90;;;;;;4986012;28;20280;-66
2022/04/09 11:50:57;;;;;;;17.40;4.70;;;22.60;99.90;;;;;;4987292;28;20182;-66
2022/04/09 11:53:24;;;;;;;16.40;4.07;;;22.50;99.90;;;;;;4988574;28;20212;-67
2022/04/09 11:56:00;;;;;;;27.47;4.60;;;22.50;99.90;;;;;;4987407;28;20182;-67
2022/04/09 11:58:34;;;;;;;19.30;4.87;;;22.50;99.90;;;;;;4984538;28;20252;-67
2022/04/09 12:01:05;;;;;;;21.27;5.37;;;22.50;99.90;;;;;;4989743;28;20189;-66
2022/04/09 12:03:32;;;;;;;19.93;5.60;;;22.50;99.90;;;;;;4991182;28;20660;-67
2022/04/09 12:06:01;;;;;;;20.75;5.53;;;22.50;99.90;;;;;;4989177;28;20254;-67
2022/04/09 12:08:29;;;;;;;17.03;5.37;;;22.50;99.90;;;;;;4988773;28;20237;-67
2022/04/09 12:11:12;;;;;;;27.95;5.53;;;22.40;99.90;;;;;;4987778;28;20213;-67
2022/04/09 12:13:42;;;;;;;19.80;4.70;;;22.40;99.90;;;;;;4985849;28;20186;-66
2022/04/09 12:16:14;;;;;;;18.50;4.57;;;22.50;99.90;;;;;;4988385;28;20213;-69
2022/04/09 12:18:42;;;;;;;22.17;4.73;;;22.50;99.90;;;;;;4987769;28;20196;-67
2022/04/09 12:21:27;;;;;;;17.80;4.83;;;22.50;99.90;;;;;;5000002;28;20190;-68
2022/04/09 12:24:12;;;;;;;13.43;4.23;;;22.40;99.90;;;;;;4985519;28;20194;-68
2022/04/09 12:26:44;;;;;;;18.95;4.32;;;22.40;99.90;;;;;;4986027;28;22051;-67
2022/04/09 12:29:17;;;;;;;14.77;3.80;;;22.30;99.90;;;;;;4988009;28;20590;-68
2022/04/09 12:31:48;;;;;;;18.50;4.43;;;22.30;99.90;;;;;;4975289;28;20202;-69
2022/04/09 12:34:16;;;;;;;15.37;4.10;;;22.40;99.90;;;;;;4963660;28;20241;-68
2022/04/09 12:37:05;;;;;;;17.23;4.40;;;22.40;99.90;;;;;;4967421;28;20272;-68
2022/04/09 12:39:34;;;;;;;15.05;3.97;;;22.40;99.90;;;;;;4964186;28;20192;-68
2022/04/09 12:42:02;;;;;;;16.47;4.33;;;22.40;99.90;;;;;;4970767;28;20198;-68
2022/04/09 12:44:31;;;;;;;13.57;3.67;;;22.40;99.90;;;;;;4983530;28;20641;-68
2022/04/09 12:46:58;;;;;;;15.43;4.10;;;22.40;99.90;;;;;;4971004;28;20215;-68
2022/04/09 12:49:33;;;;;;;11.03;3.40;;;22.40;99.90;;;;;;4971331;28;20205;-68
2022/04/09 12:52:01;;;;;;;11.73;3.40;;;22.40;99.90;;;;;;4966571;28;20192;-68
2022/04/09 12:54:28;;;;;;;10.88;3.30;;;22.40;99.90;;;;;;4972253;28;20224;-68